sensor_id;sensor_type;location;lat;lon;timestamp;pressure;altitude;pressure_sealevel;temperature;humidity
740;BME280;354;42.694;23.336;2023-04-01T00:02:00;94421.59;;;11.06;100.00
740;BME280;354;42.694;23.336;2023-04-01T00:04:25;94420.94;;;10.99;100.00
740;BME280;354;42.694;23.336;2023-04-01T00:06:50;94420.03;;;10.82;100.00
740;BME280;354;42.694;23.336;2023-04-01T00:09:17;94424.59;;;10.87;100.00
740;BME280;354;42.694;23.336;2023-04-01T00:11:43;94426.81;;;10.78;100.00
740;BME280;354;42.694;23.336;2023-04-01T00:14:10;94435.84;;;10.59;100.00
740;BME280;354;42.694;23.336;2023-04-01T00:16:36;94436.44;;;10.37;100.00
740;BME280;354;42.694;23.336;2023-04-01T00:19:02;94430.63;;;10.35;100.00
740;BME280;354;42.694;23.336;2023-04-01T00:21:27;94430.06;;;10.33;100.00
740;BME280;354;42.694;23.336;2023-04-01T00:23:53;94436.09;;;10.34;100.00
740;BME280;354;42.694;23.336;2023-04-01T00:26:18;94417.09;;;10.20;100.00
740;BME280;354;42.694;23.336;2023-04-01T00:28:46;94429.69;;;10.29;100.00
740;BME280;354;42.694;23.336;2023-04-01T00:31:12;94424.53;;;10.23;100.00
740;BME280;354;42.694;23.336;2023-04-01T00:33:38;94419.59;;;10.15;100.00
740;BME280;354;42.694;23.336;2023-04-01T00:36:10;94424.72;;;10.10;100.00
740;BME280;354;42.694;23.336;2023-04-01T00:38:37;94421.78;;;10.06;100.00
740;BME280;354;42.694;23.336;2023-04-01T00:41:04;94414.03;;;10.11;100.00
740;BME280;354;42.694;23.336;2023-04-01T00:43:30;94421.31;;;10.09;100.00
740;BME280;354;42.694;23.336;2023-04-01T00:45:56;94400.16;;;10.16;100.00
740;BME280;354;42.694;23.336;2023-04-01T00:48:30;94392.28;;;10.16;100.00
740;BME280;354;42.694;23.336;2023-04-01T00:51:01;94402.50;;;10.24;100.00
740;BME280;354;42.694;23.336;2023-04-01T00:53:28;94387.66;;;10.29;100.00
740;BME280;354;42.694;23.336;2023-04-01T00:56:05;94396.22;;;10.37;100.00
740;BME280;354;42.694;23.336;2023-04-01T00:58:35;94384.09;;;10.47;100.00
740;BME280;354;42.694;23.336;2023-04-01T01:01:03;94376.53;;;10.51;100.00
740;BME280;354;42.694;23.336;2023-04-01T01:03:29;94366.81;;;10.51;100.00
740;BME280;354;42.694;23.336;2023-04-01T01:09:06;94359.41;;;10.37;100.00
740;BME280;354;42.694;23.336;2023-04-01T01:11:40;94350.16;;;10.34;100.00
740;BME280;354;42.694;23.336;2023-04-01T01:16:57;94355.63;;;10.21;100.00
740;BME280;354;42.694;23.336;2023-04-01T01:19:47;94354.69;;;10.15;100.00
740;BME280;354;42.694;23.336;2023-04-01T01:22:36;94349.47;;;10.03;100.00
740;BME280;354;42.694;23.336;2023-04-01T01:27:54;94347.19;;;9.95;100.00
740;BME280;354;42.694;23.336;2023-04-01T01:30:35;94323.19;;;10.03;100.00
740;BME280;354;42.694;23.336;2023-04-01T01:35:56;94309.03;;;10.04;100.00
740;BME280;354;42.694;23.336;2023-04-01T01:38:27;94301.50;;;9.96;100.00
740;BME280;354;42.694;23.336;2023-04-01T01:40:55;94327.31;;;10.11;100.00
740;BME280;354;42.694;23.336;2023-04-01T01:43:25;94310.28;;;10.14;100.00
740;BME280;354;42.694;23.336;2023-04-01T01:45:55;94337.81;;;10.23;100.00
740;BME280;354;42.694;23.336;2023-04-01T01:48:23;94313.16;;;10.24;100.00
740;BME280;354;42.694;23.336;2023-04-01T01:50:50;94314.84;;;10.18;100.00
740;BME280;354;42.694;23.336;2023-04-01T01:53:16;94317.13;;;10.15;100.00
740;BME280;354;42.694;23.336;2023-04-01T01:55:46;94298.72;;;10.15;100.00
740;BME280;354;42.694;23.336;2023-04-01T01:58:22;94316.22;;;10.33;100.00
740;BME280;354;42.694;23.336;2023-04-01T02:01:12;94309.50;;;10.25;100.00
740;BME280;354;42.694;23.336;2023-04-01T02:03:40;94310.94;;;10.33;100.00
740;BME280;354;42.694;23.336;2023-04-01T02:06:10;94315.75;;;10.36;100.00
740;BME280;354;42.694;23.336;2023-04-01T02:08:55;94309.75;;;10.64;100.00
740;BME280;354;42.694;23.336;2023-04-01T02:11:31;94303.25;;;10.54;100.00
740;BME280;354;42.694;23.336;2023-04-01T02:14:12;94298.06;;;10.71;100.00
740;BME280;354;42.694;23.336;2023-04-01T02:19:27;94285.63;;;10.67;100.00
740;BME280;354;42.694;23.336;2023-04-01T02:21:59;94288.44;;;10.77;100.00
740;BME280;354;42.694;23.336;2023-04-01T02:24:28;94291.06;;;10.77;100.00
740;BME280;354;42.694;23.336;2023-04-01T02:26:55;94281.09;;;10.79;100.00
740;BME280;354;42.694;23.336;2023-04-01T02:29:22;94289.44;;;10.76;100.00
740;BME280;354;42.694;23.336;2023-04-01T02:31:49;94293.03;;;10.70;100.00
740;BME280;354;42.694;23.336;2023-04-01T02:34:15;94283.88;;;10.72;100.00
740;BME280;354;42.694;23.336;2023-04-01T02:36:41;94290.94;;;10.84;100.00
740;BME280;354;42.694;23.336;2023-04-01T02:39:08;94284.19;;;10.76;100.00
740;BME280;354;42.694;23.336;2023-04-01T02:41:39;94294.59;;;10.82;100.00
740;BME280;354;42.694;23.336;2023-04-01T02:44:05;94298.66;;;10.90;100.00
740;BME280;354;42.694;23.336;2023-04-01T02:46:32;94305.56;;;11.08;100.00
740;BME280;354;42.694;23.336;2023-04-01T02:48:57;94303.03;;;11.13;100.00
740;BME280;354;42.694;23.336;2023-04-01T02:51:23;94292.09;;;11.04;100.00
740;BME280;354;42.694;23.336;2023-04-01T02:53:48;94314.09;;;11.15;100.00
740;BME280;354;42.694;23.336;2023-04-01T02:56:13;94312.75;;;11.13;100.00
740;BME280;354;42.694;23.336;2023-04-01T02:58:39;94299.13;;;10.87;100.00
740;BME280;354;42.694;23.336;2023-04-01T03:01:04;94335.25;;;10.92;100.00
740;BME280;354;42.694;23.336;2023-04-01T03:03:30;94313.03;;;10.71;100.00
740;BME280;354;42.694;23.336;2023-04-01T03:05:56;94328.16;;;10.64;100.00
740;BME280;354;42.694;23.336;2023-04-01T03:08:23;94330.84;;;10.40;100.00
740;BME280;354;42.694;23.336;2023-04-01T03:10:49;94338.72;;;10.17;100.00
740;BME280;354;42.694;23.336;2023-04-01T03:13:14;94336.22;;;9.98;100.00
740;BME280;354;42.694;23.336;2023-04-01T03:15:40;94343.28;;;9.86;100.00
740;BME280;354;42.694;23.336;2023-04-01T03:18:05;94339.06;;;9.73;100.00
740;BME280;354;42.694;23.336;2023-04-01T03:20:31;94337.91;;;9.69;100.00
740;BME280;354;42.694;23.336;2023-04-01T03:22:56;94324.09;;;9.50;100.00
740;BME280;354;42.694;23.336;2023-04-01T03:25:22;94347.94;;;9.61;100.00
740;BME280;354;42.694;23.336;2023-04-01T03:27:48;94334.38;;;9.87;100.00
740;BME280;354;42.694;23.336;2023-04-01T03:30:13;94343.72;;;9.83;100.00
740;BME280;354;42.694;23.336;2023-04-01T03:32:38;94357.69;;;9.95;100.00
740;BME280;354;42.694;23.336;2023-04-01T03:35:04;94320.25;;;10.00;100.00
740;BME280;354;42.694;23.336;2023-04-01T03:37:30;94346.72;;;10.10;100.00
740;BME280;354;42.694;23.336;2023-04-01T03:39:56;94340.31;;;10.18;100.00
740;BME280;354;42.694;23.336;2023-04-01T03:42:21;94317.22;;;10.20;100.00
740;BME280;354;42.694;23.336;2023-04-01T03:44:46;94319.75;;;10.50;100.00
740;BME280;354;42.694;23.336;2023-04-01T03:47:12;94316.75;;;10.46;100.00
740;BME280;354;42.694;23.336;2023-04-01T03:49:37;94300.22;;;10.34;100.00
740;BME280;354;42.694;23.336;2023-04-01T03:52:02;94277.28;;;10.58;100.00
740;BME280;354;42.694;23.336;2023-04-01T03:54:28;94281.78;;;10.46;100.00
740;BME280;354;42.694;23.336;2023-04-01T03:56:53;94266.91;;;10.51;100.00
740;BME280;354;42.694;23.336;2023-04-01T03:59:20;94232.00;;;10.39;100.00
740;BME280;354;42.694;23.336;2023-04-01T04:01:46;94243.66;;;10.60;100.00
740;BME280;354;42.694;23.336;2023-04-01T04:04:13;94240.91;;;10.67;100.00
740;BME280;354;42.694;23.336;2023-04-01T04:06:38;94236.13;;;10.64;100.00
740;BME280;354;42.694;23.336;2023-04-01T04:09:04;94230.75;;;10.59;100.00
740;BME280;354;42.694;23.336;2023-04-01T04:11:30;94218.50;;;10.64;100.00
740;BME280;354;42.694;23.336;2023-04-01T04:13:55;94198.00;;;10.49;100.00
740;BME280;354;42.694;23.336;2023-04-01T04:16:21;94216.97;;;10.51;100.00
740;BME280;354;42.694;23.336;2023-04-01T04:18:46;94206.25;;;10.41;100.00
740;BME280;354;42.694;23.336;2023-04-01T04:21:15;94213.06;;;10.25;100.00
740;BME280;354;42.694;23.336;2023-04-01T04:23:41;94209.16;;;10.28;100.00
740;BME280;354;42.694;23.336;2023-04-01T04:26:09;94205.81;;;10.44;100.00
740;BME280;354;42.694;23.336;2023-04-01T04:28:34;94182.16;;;10.44;100.00
740;BME280;354;42.694;23.336;2023-04-01T04:31:00;94178.56;;;10.50;100.00
740;BME280;354;42.694;23.336;2023-04-01T04:33:26;94178.66;;;10.55;100.00
740;BME280;354;42.694;23.336;2023-04-01T04:35:54;94186.47;;;10.50;100.00
740;BME280;354;42.694;23.336;2023-04-01T04:38:20;94180.75;;;10.42;100.00
740;BME280;354;42.694;23.336;2023-04-01T04:40:45;94172.00;;;10.36;100.00
740;BME280;354;42.694;23.336;2023-04-01T04:43:13;94180.91;;;10.35;100.00
740;BME280;354;42.694;23.336;2023-04-01T04:45:39;94174.88;;;10.35;100.00
740;BME280;354;42.694;23.336;2023-04-01T04:48:06;94189.63;;;10.24;100.00
740;BME280;354;42.694;23.336;2023-04-01T04:50:31;94158.38;;;9.99;100.00
740;BME280;354;42.694;23.336;2023-04-01T04:52:57;94159.66;;;9.96;100.00
740;BME280;354;42.694;23.336;2023-04-01T04:55:22;94161.75;;;10.23;100.00
740;BME280;354;42.694;23.336;2023-04-01T04:57:47;94144.97;;;10.24;100.00
740;BME280;354;42.694;23.336;2023-04-01T05:00:13;94155.25;;;10.25;100.00
740;BME280;354;42.694;23.336;2023-04-01T05:02:38;94151.41;;;10.45;100.00
740;BME280;354;42.694;23.336;2023-04-01T05:05:04;94162.50;;;10.35;100.00
740;BME280;354;42.694;23.336;2023-04-01T05:07:30;94162.69;;;10.45;100.00
740;BME280;354;42.694;23.336;2023-04-01T05:09:55;94153.16;;;10.56;100.00
740;BME280;354;42.694;23.336;2023-04-01T05:12:21;94130.38;;;10.62;100.00
740;BME280;354;42.694;23.336;2023-04-01T05:14:46;94109.00;;;10.41;100.00
740;BME280;354;42.694;23.336;2023-04-01T05:17:12;94119.91;;;10.33;100.00
740;BME280;354;42.694;23.336;2023-04-01T05:19:38;94127.66;;;10.40;100.00
740;BME280;354;42.694;23.336;2023-04-01T05:22:04;94129.09;;;10.47;100.00
740;BME280;354;42.694;23.336;2023-04-01T05:24:30;94115.69;;;10.66;100.00
740;BME280;354;42.694;23.336;2023-04-01T05:26:56;94102.97;;;10.91;100.00
740;BME280;354;42.694;23.336;2023-04-01T05:29:22;94101.53;;;11.00;100.00
740;BME280;354;42.694;23.336;2023-04-01T05:31:48;94113.28;;;11.15;100.00
740;BME280;354;42.694;23.336;2023-04-01T05:34:13;94121.31;;;11.64;100.00
740;BME280;354;42.694;23.336;2023-04-01T05:36:39;94121.81;;;12.53;100.00
740;BME280;354;42.694;23.336;2023-04-01T05:39:07;94126.28;;;13.54;100.00
740;BME280;354;42.694;23.336;2023-04-01T05:41:35;94120.22;;;14.27;100.00
740;BME280;354;42.694;23.336;2023-04-01T05:44:00;94131.94;;;15.43;100.00
740;BME280;354;42.694;23.336;2023-04-01T05:46:25;94126.28;;;16.50;89.17
740;BME280;354;42.694;23.336;2023-04-01T05:48:51;94114.59;;;16.95;80.05
740;BME280;354;42.694;23.336;2023-04-01T05:51:16;94112.44;;;17.31;79.04
740;BME280;354;42.694;23.336;2023-04-01T05:53:42;94101.25;;;17.87;75.65
740;BME280;354;42.694;23.336;2023-04-01T05:56:08;94084.56;;;18.25;71.05
740;BME280;354;42.694;23.336;2023-04-01T05:58:35;94107.22;;;19.30;68.50
740;BME280;354;42.694;23.336;2023-04-01T06:01:09;94105.56;;;19.94;62.65
740;BME280;354;42.694;23.336;2023-04-01T06:03:35;94100.53;;;20.07;59.47
740;BME280;354;42.694;23.336;2023-04-01T06:06:01;94096.75;;;19.66;59.76
740;BME280;354;42.694;23.336;2023-04-01T06:08:27;94106.13;;;19.17;59.88
740;BME280;354;42.694;23.336;2023-04-01T06:29:56;94103.81;;;15.77;71.40
740;BME280;354;42.694;23.336;2023-04-01T06:35:21;94102.41;;;16.00;73.66
740;BME280;354;42.694;23.336;2023-04-01T06:46:40;94077.16;;;15.18;79.03
740;BME280;354;42.694;23.336;2023-04-01T06:49:21;94083.03;;;14.79;83.53
740;BME280;354;42.694;23.336;2023-04-01T06:52:02;94075.88;;;14.64;85.36
740;BME280;354;42.694;23.336;2023-04-01T06:54:35;94035.66;;;14.67;84.95
740;BME280;354;42.694;23.336;2023-04-01T06:57:25;94046.25;;;14.67;85.72
740;BME280;354;42.694;23.336;2023-04-01T06:59:55;94041.75;;;14.63;89.30
740;BME280;354;42.694;23.336;2023-04-01T07:02:47;94043.53;;;14.42;91.91
740;BME280;354;42.694;23.336;2023-04-01T07:05:14;94048.03;;;14.41;92.61
740;BME280;354;42.694;23.336;2023-04-01T07:07:46;94053.59;;;14.30;93.16
740;BME280;354;42.694;23.336;2023-04-01T07:10:31;94059.66;;;14.25;94.21
740;BME280;354;42.694;23.336;2023-04-01T07:13:00;94053.34;;;14.46;94.44
740;BME280;354;42.694;23.336;2023-04-01T07:15:33;94036.19;;;14.64;95.79
740;BME280;354;42.694;23.336;2023-04-01T07:18:04;94020.03;;;14.56;96.06
740;BME280;354;42.694;23.336;2023-04-01T07:20:32;94032.44;;;14.40;98.53
740;BME280;354;42.694;23.336;2023-04-01T07:23:06;94043.59;;;14.47;99.76
740;BME280;354;42.694;23.336;2023-04-01T07:25:38;94044.63;;;14.46;100.00
740;BME280;354;42.694;23.336;2023-04-01T07:28:11;94039.63;;;14.65;99.79
740;BME280;354;42.694;23.336;2023-04-01T07:33:15;94049.34;;;15.10;96.56
740;BME280;354;42.694;23.336;2023-04-01T07:35:53;94052.56;;;15.12;96.33
740;BME280;354;42.694;23.336;2023-04-01T07:38:30;94047.28;;;14.97;96.50
740;BME280;354;42.694;23.336;2023-04-01T07:47:17;94021.56;;;15.18;96.01
740;BME280;354;42.694;23.336;2023-04-01T07:49:40;94036.03;;;15.46;95.97
740;BME280;354;42.694;23.336;2023-04-01T07:54:59;94029.56;;;15.83;92.48
740;BME280;354;42.694;23.336;2023-04-01T07:57:50;94004.72;;;15.53;89.93
740;BME280;354;42.694;23.336;2023-04-01T08:00:47;94024.50;;;15.06;90.72
740;BME280;354;42.694;23.336;2023-04-01T08:03:31;94018.34;;;15.26;91.86
740;BME280;354;42.694;23.336;2023-04-01T08:06:15;94018.78;;;15.53;92.41
740;BME280;354;42.694;23.336;2023-04-01T08:09:11;94006.88;;;15.51;91.34
740;BME280;354;42.694;23.336;2023-04-01T08:12:35;94015.09;;;15.49;90.44
740;BME280;354;42.694;23.336;2023-04-01T08:14:46;94011.09;;;15.52;90.27
740;BME280;354;42.694;23.336;2023-04-01T08:17:21;93998.63;;;15.58;89.84
740;BME280;354;42.694;23.336;2023-04-01T08:22:47;93982.38;;;15.79;90.04
740;BME280;354;42.694;23.336;2023-04-01T08:25:22;93988.38;;;16.00;88.95
740;BME280;354;42.694;23.336;2023-04-01T08:31:33;93978.44;;;16.16;86.02
740;BME280;354;42.694;23.336;2023-04-01T08:34:04;93967.66;;;16.37;85.57
740;BME280;354;42.694;23.336;2023-04-01T08:36:38;93961.97;;;16.88;84.46
740;BME280;354;42.694;23.336;2023-04-01T08:39:09;93949.44;;;17.36;80.70
740;BME280;354;42.694;23.336;2023-04-01T08:47:30;93906.75;;;16.84;80.59
740;BME280;354;42.694;23.336;2023-04-01T08:50:16;93916.91;;;16.77;81.75
740;BME280;354;42.694;23.336;2023-04-01T08:53:07;93907.19;;;16.63;78.54
740;BME280;354;42.694;23.336;2023-04-01T08:58:27;93904.63;;;16.52;76.83
740;BME280;354;42.694;23.336;2023-04-01T09:03:41;93919.16;;;17.13;75.75
740;BME280;354;42.694;23.336;2023-04-01T09:26:12;93904.13;;;19.01;58.57
740;BME280;354;42.694;23.336;2023-04-01T09:43:01;93872.25;;;18.03;59.80
740;BME280;354;42.694;23.336;2023-04-01T09:52:08;93837.03;;;18.25;59.78
740;BME280;354;42.694;23.336;2023-04-01T09:57:45;93847.25;;;18.64;58.57
740;BME280;354;42.694;23.336;2023-04-01T10:00:49;93827.78;;;18.36;60.94
740;BME280;354;42.694;23.336;2023-04-01T10:06:12;93825.22;;;18.31;62.10
740;BME280;354;42.694;23.336;2023-04-01T10:23:54;93807.09;;;18.47;62.82
740;BME280;354;42.694;23.336;2023-04-01T10:36:57;93807.41;;;17.99;64.66
740;BME280;354;42.694;23.336;2023-04-01T10:59:18;93768.31;;;17.48;66.86
740;BME280;354;42.694;23.336;2023-04-01T11:48:00;93911.78;;;14.69;100.00
740;BME280;354;42.694;23.336;2023-04-01T11:50:52;93954.03;;;13.47;100.00
740;BME280;354;42.694;23.336;2023-04-01T11:53:47;93982.91;;;12.64;100.00
740;BME280;354;42.694;23.336;2023-04-01T11:56:44;94021.00;;;12.14;100.00
740;BME280;354;42.694;23.336;2023-04-01T12:02:08;94037.72;;;11.76;100.00
740;BME280;354;42.694;23.336;2023-04-01T12:04:54;94062.59;;;11.63;100.00
740;BME280;354;42.694;23.336;2023-04-01T12:13:11;94044.88;;;11.37;100.00
740;BME280;354;42.694;23.336;2023-04-01T12:18:40;94040.59;;;11.52;100.00
740;BME280;354;42.694;23.336;2023-04-01T12:21:37;94041.44;;;12.02;100.00
740;BME280;354;42.694;23.336;2023-04-01T12:24:25;94048.28;;;12.62;100.00
740;BME280;354;42.694;23.336;2023-04-01T12:27:15;94041.81;;;12.80;100.00
740;BME280;354;42.694;23.336;2023-04-01T12:33:01;94035.09;;;12.99;100.00
740;BME280;354;42.694;23.336;2023-04-01T12:49:31;94046.97;;;11.56;100.00
740;BME280;354;42.694;23.336;2023-04-01T12:55:08;94018.00;;;11.13;100.00
740;BME280;354;42.694;23.336;2023-04-01T13:15:26;93963.06;;;11.92;100.00
740;BME280;354;42.694;23.336;2023-04-01T13:20:36;93987.50;;;12.09;100.00
740;BME280;354;42.694;23.336;2023-04-01T13:28:46;93959.72;;;12.71;100.00
740;BME280;354;42.694;23.336;2023-04-01T13:42:28;93906.88;;;12.56;100.00
740;BME280;354;42.694;23.336;2023-04-01T13:45:17;93903.34;;;12.40;100.00
740;BME280;354;42.694;23.336;2023-04-01T13:48:04;93892.31;;;12.43;100.00
740;BME280;354;42.694;23.336;2023-04-01T14:04:27;93883.97;;;12.61;100.00
740;BME280;354;42.694;23.336;2023-04-01T14:15:29;93868.31;;;12.45;100.00
740;BME280;354;42.694;23.336;2023-04-01T14:23:51;93844.94;;;12.58;100.00
740;BME280;354;42.694;23.336;2023-04-01T14:32:06;93824.69;;;12.79;100.00
740;BME280;354;42.694;23.336;2023-04-01T14:46:07;93810.53;;;13.11;100.00
740;BME280;354;42.694;23.336;2023-04-01T14:48:57;93815.53;;;13.12;100.00
740;BME280;354;42.694;23.336;2023-04-01T14:51:34;93807.94;;;13.26;100.00
740;BME280;354;42.694;23.336;2023-04-01T14:54:13;93818.25;;;13.33;100.00
740;BME280;354;42.694;23.336;2023-04-01T14:57:30;93812.22;;;13.58;100.00
740;BME280;354;42.694;23.336;2023-04-01T14:59:49;93818.53;;;13.92;100.00
740;BME280;354;42.694;23.336;2023-04-01T15:05:27;93821.88;;;14.49;100.00
740;BME280;354;42.694;23.336;2023-04-01T15:08:02;93800.66;;;14.64;100.00
740;BME280;354;42.694;23.336;2023-04-01T15:10:59;93819.63;;;14.82;100.00
740;BME280;354;42.694;23.336;2023-04-01T15:27:03;93836.47;;;14.16;100.00
740;BME280;354;42.694;23.336;2023-04-01T15:32:28;93819.59;;;14.02;100.00
740;BME280;354;42.694;23.336;2023-04-01T15:40:31;93834.38;;;13.82;100.00
740;BME280;354;42.694;23.336;2023-04-01T15:46:48;93823.03;;;13.82;100.00
740;BME280;354;42.694;23.336;2023-04-01T15:49:22;93896.47;;;13.54;100.00
740;BME280;354;42.694;23.336;2023-04-01T15:52:03;93965.88;;;13.39;100.00
740;BME280;354;42.694;23.336;2023-04-01T15:55:01;94037.72;;;11.76;100.00
740;BME280;354;42.694;23.336;2023-04-01T16:02:48;94100.19;;;9.38;100.00
740;BME280;354;42.694;23.336;2023-04-01T16:11:13;94116.19;;;8.78;100.00
740;BME280;354;42.694;23.336;2023-04-01T16:28:03;94139.19;;;8.53;100.00
740;BME280;354;42.694;23.336;2023-04-01T16:30:38;94169.47;;;8.49;100.00
740;BME280;354;42.694;23.336;2023-04-01T16:36:10;94166.50;;;8.57;100.00
740;BME280;354;42.694;23.336;2023-04-01T16:41:24;94184.00;;;8.63;100.00
740;BME280;354;42.694;23.336;2023-04-01T16:43:53;94174.44;;;8.68;100.00
740;BME280;354;42.694;23.336;2023-04-01T16:46:33;94183.22;;;8.74;100.00
740;BME280;354;42.694;23.336;2023-04-01T16:52:00;94189.56;;;8.66;100.00
740;BME280;354;42.694;23.336;2023-04-01T16:57:37;94186.16;;;8.66;100.00
740;BME280;354;42.694;23.336;2023-04-01T17:00:22;94191.38;;;8.66;100.00
740;BME280;354;42.694;23.336;2023-04-01T17:05:20;94190.22;;;8.62;100.00
740;BME280;354;42.694;23.336;2023-04-01T17:11:16;94195.16;;;8.70;100.00
740;BME280;354;42.694;23.336;2023-04-01T17:16:31;94202.38;;;8.75;100.00
740;BME280;354;42.694;23.336;2023-04-01T17:19:11;94195.16;;;8.70;100.00
740;BME280;354;42.694;23.336;2023-04-01T17:27:04;94201.88;;;8.66;100.00
740;BME280;354;42.694;23.336;2023-04-01T17:30:01;94200.38;;;8.58;100.00
740;BME280;354;42.694;23.336;2023-04-01T17:32:46;94196.97;;;8.58;100.00
740;BME280;354;42.694;23.336;2023-04-01T17:35:39;94197.41;;;8.55;100.00
740;BME280;354;42.694;23.336;2023-04-01T17:41:01;94181.53;;;8.50;100.00
740;BME280;354;42.694;23.336;2023-04-01T17:51:35;94230.81;;;8.59;100.00
740;BME280;354;42.694;23.336;2023-04-01T17:54:12;94241.69;;;8.44;100.00
740;BME280;354;42.694;23.336;2023-04-01T17:56:57;94248.66;;;8.32;100.00
740;BME280;354;42.694;23.336;2023-04-01T17:59:36;94254.69;;;8.33;100.00
740;BME280;354;42.694;23.336;2023-04-01T18:07:50;94276.41;;;8.22;100.00
740;BME280;354;42.694;23.336;2023-04-01T18:10:26;94273.56;;;8.23;100.00
740;BME280;354;42.694;23.336;2023-04-01T18:23:45;94280.41;;;8.24;100.00
740;BME280;354;42.694;23.336;2023-04-01T18:26:23;94272.59;;;8.17;100.00
740;BME280;354;42.694;23.336;2023-04-01T18:29:17;94269.03;;;8.12;100.00
740;BME280;354;42.694;23.336;2023-04-01T18:32:23;94279.97;;;8.09;100.00
740;BME280;354;42.694;23.336;2023-04-01T18:35:14;94276.47;;;8.15;100.00
740;BME280;354;42.694;23.336;2023-04-01T18:37:55;94280.28;;;8.19;100.00
740;BME280;354;42.694;23.336;2023-04-01T18:40:37;94278.38;;;8.26;100.00
740;BME280;354;42.694;23.336;2023-04-01T18:43:18;94280.31;;;8.31;100.00
740;BME280;354;42.694;23.336;2023-04-01T18:46:00;94271.66;;;8.30;100.00
740;BME280;354;42.694;23.336;2023-04-01T18:49:05;94279.06;;;8.33;100.00
740;BME280;354;42.694;23.336;2023-04-01T18:51:59;94277.19;;;8.40;100.00
740;BME280;354;42.694;23.336;2023-04-01T18:54:45;94289.72;;;8.38;100.00
740;BME280;354;42.694;23.336;2023-04-01T18:57:15;94289.16;;;8.36;100.00
740;BME280;354;42.694;23.336;2023-04-01T18:59:45;94290.53;;;8.39;100.00
740;BME280;354;42.694;23.336;2023-04-01T19:02:41;94300.19;;;8.57;100.00
740;BME280;354;42.694;23.336;2023-04-01T19:05:18;94303.13;;;8.49;100.00
740;BME280;354;42.694;23.336;2023-04-01T19:07:52;94303.97;;;8.61;100.00
740;BME280;354;42.694;23.336;2023-04-01T19:15:44;94305.19;;;8.77;100.00
740;BME280;354;42.694;23.336;2023-04-01T19:18:21;94301.22;;;8.86;100.00
740;BME280;354;42.694;23.336;2023-04-01T19:20:55;94292.91;;;8.89;100.00
740;BME280;354;42.694;23.336;2023-04-01T19:26:22;94295.75;;;8.87;100.00
740;BME280;354;42.694;23.336;2023-04-01T19:37:01;94325.88;;;8.66;100.00
740;BME280;354;42.694;23.336;2023-04-01T19:42:43;94333.13;;;8.83;100.00
740;BME280;354;42.694;23.336;2023-04-01T19:51:06;94329.66;;;9.01;100.00
740;BME280;354;42.694;23.336;2023-04-01T19:53:20;94335.09;;;8.87;100.00
740;BME280;354;42.694;23.336;2023-04-01T19:55:59;94341.78;;;8.83;100.00
740;BME280;354;42.694;23.336;2023-04-01T19:59:02;94343.28;;;8.79;100.00
740;BME280;354;42.694;23.336;2023-04-01T20:01:43;94336.88;;;8.75;100.00
740;BME280;354;42.694;23.336;2023-04-01T20:04:17;94338.41;;;8.64;100.00
740;BME280;354;42.694;23.336;2023-04-01T20:07:09;94338.63;;;8.63;100.00
740;BME280;354;42.694;23.336;2023-04-01T20:13:13;94351.59;;;8.58;100.00
740;BME280;354;42.694;23.336;2023-04-01T20:15:43;94308.19;;;8.25;100.00
740;BME280;354;42.694;23.336;2023-04-01T20:18:20;94351.28;;;8.66;100.00
740;BME280;354;42.694;23.336;2023-04-01T20:20:59;94353.63;;;8.74;100.00
740;BME280;354;42.694;23.336;2023-04-01T20:23:43;94352.59;;;8.75;100.00
740;BME280;354;42.694;23.336;2023-04-01T20:26:12;94353.03;;;8.72;100.00
740;BME280;354;42.694;23.336;2023-04-01T20:31:31;94356.75;;;8.64;100.00
740;BME280;354;42.694;23.336;2023-04-01T20:34:29;94356.81;;;8.76;100.00
740;BME280;354;42.694;23.336;2023-04-01T20:40:17;94356.25;;;8.74;100.00
740;BME280;354;42.694;23.336;2023-04-01T20:50:52;94331.19;;;8.60;100.00
740;BME280;354;42.694;23.336;2023-04-01T21:12:48;94361.78;;;8.48;100.00
740;BME280;354;42.694;23.336;2023-04-01T21:23:31;94385.47;;;8.89;100.00
740;BME280;354;42.694;23.336;2023-04-01T21:35:08;94378.69;;;9.00;100.00
740;BME280;354;42.694;23.336;2023-04-01T21:52:21;94387.63;;;8.81;100.00
740;BME280;354;42.694;23.336;2023-04-01T22:00:32;94369.75;;;8.89;100.00
740;BME280;354;42.694;23.336;2023-04-01T22:03:35;94384.97;;;8.99;100.00
740;BME280;354;42.694;23.336;2023-04-01T22:09:05;94386.38;;;8.83;100.00
740;BME280;354;42.694;23.336;2023-04-01T22:12:10;94380.50;;;8.69;100.00
740;BME280;354;42.694;23.336;2023-04-01T22:17:34;94382.16;;;8.45;100.00
740;BME280;354;42.694;23.336;2023-04-01T22:30:50;94364.72;;;8.33;100.00
740;BME280;354;42.694;23.336;2023-04-01T22:44:00;94385.78;;;8.26;100.00
740;BME280;354;42.694;23.336;2023-04-01T22:47:28;94384.53;;;8.29;100.00
740;BME280;354;42.694;23.336;2023-04-01T22:49:32;94387.81;;;8.24;100.00
740;BME280;354;42.694;23.336;2023-04-01T22:52:23;94392.44;;;8.22;100.00
740;BME280;354;42.694;23.336;2023-04-01T22:55:05;94387.38;;;8.27;100.00
740;BME280;354;42.694;23.336;2023-04-01T22:58:07;94398.50;;;8.23;100.00
740;BME280;354;42.694;23.336;2023-04-01T23:00:37;94402.19;;;8.15;100.00
740;BME280;354;42.694;23.336;2023-04-01T23:03:11;94405.16;;;8.18;100.00
740;BME280;354;42.694;23.336;2023-04-01T23:06:02;94395.72;;;8.17;100.00
740;BME280;354;42.694;23.336;2023-04-01T23:11:07;94399.25;;;8.30;100.00
740;BME280;354;42.694;23.336;2023-04-01T23:13:44;94392.44;;;8.22;100.00
740;BME280;354;42.694;23.336;2023-04-01T23:16:14;94394.00;;;8.30;100.00
740;BME280;354;42.694;23.336;2023-04-01T23:19:06;94379.56;;;8.21;100.00
740;BME280;354;42.694;23.336;2023-04-01T23:21:41;94408.22;;;8.40;100.00
740;BME280;354;42.694;23.336;2023-04-01T23:24:18;94407.50;;;8.52;100.00
740;BME280;354;42.694;23.336;2023-04-01T23:29:17;94394.97;;;8.35;100.00